Terminal Aerodrome Forecast
Issued by NWS

Home | Current Version | Previous Version | Text Only | Print | Product List | Glossary On
Versions: 1 2 3 4 5 6 7 8 9 10 11 12 13 14 15 16 17 18 19 20
000
FTUS41 KPBZ 041131
TAFMGW
TAF
KMGW 041131Z 0412/0512 VRB03KT 3SM -SHRA BR OVC009
     FM041400 32005KT 5SM BR BKN015
     FM041600 33008KT P6SM BKN025
     FM041800 32008KT P6SM SCT040
     FM050800 00000KT 2SM BR SKC=

USA.gov is the U.S. government's official web portal to all federal, state and local government web resources and services.